createdAt,value
2023-03-07T00:01:01.576Z,37.50
2023-03-07T00:03:28.378Z,37.40
2023-03-07T00:06:06.963Z,37.50
2023-03-07T00:08:34.169Z,37.60
2023-03-07T00:11:02.988Z,37.90
2023-03-07T00:13:31.644Z,38.30
2023-03-07T00:16:07.315Z,37.80
2023-03-07T00:18:34.630Z,37.80
2023-03-07T00:21:05.885Z,38.00
2023-03-07T00:23:34.476Z,37.90
2023-03-07T00:26:04.086Z,38.10
2023-03-07T00:28:31.038Z,38.10
2023-03-07T00:31:03.337Z,38.10
2023-03-07T00:33:30.379Z,38.20
2023-03-07T00:35:59.886Z,38.20
2023-03-07T00:38:28.011Z,38.10
2023-03-07T00:41:01.873Z,38.10
2023-03-07T00:43:29.681Z,38.10
2023-03-07T00:45:57.133Z,38.30
2023-03-07T00:48:24.704Z,38.10
2023-03-07T00:50:52.279Z,38.30
2023-03-07T00:53:19.929Z,38.60
2023-03-07T00:56:05.689Z,39.20
2023-03-07T00:58:35.126Z,38.50
2023-03-07T01:01:03.642Z,38.70
2023-03-07T01:03:30.859Z,38.70
2023-03-07T01:05:58.126Z,38.60
2023-03-07T01:08:24.854Z,38.60
2023-03-07T01:10:51.611Z,38.60
2023-03-07T01:13:19.631Z,38.80
2023-03-07T01:15:46.407Z,38.80
2023-03-07T01:18:13.526Z,38.90
2023-03-07T01:21:31.589Z,39.30
2023-03-07T01:23:58.434Z,39.50
2023-03-07T01:26:28.262Z,39.70
2023-03-07T01:28:57.667Z,39.80
2023-03-07T01:31:25.673Z,39.70
2023-03-07T01:33:53.692Z,39.50
2023-03-07T01:36:25.507Z,39.40
2023-03-07T01:38:55.526Z,39.50
2023-03-07T01:41:22.752Z,39.70
2023-03-07T01:43:49.753Z,39.70
2023-03-07T01:46:22.170Z,39.90
2023-03-07T01:49:03.926Z,40.00
2023-03-07T01:51:31.802Z,40.20
2023-03-07T01:54:00.605Z,40.50
2023-03-07T01:56:27.881Z,40.30
2023-03-07T01:58:55.508Z,40.70
2023-03-07T02:01:23.870Z,40.80
2023-03-07T02:04:08.374Z,40.90
2023-03-07T02:06:38.461Z,41.10
2023-03-07T02:09:12.400Z,41.40
2023-03-07T02:11:44.331Z,41.60
2023-03-07T02:14:11.504Z,41.80
2023-03-07T02:16:39.140Z,41.40
2023-03-07T02:19:33.292Z,41.80
2023-03-07T02:22:11.069Z,41.80
2023-03-07T02:24:56.104Z,41.80
2023-03-07T02:27:25.596Z,42.00
2023-03-07T02:29:52.976Z,42.10
2023-03-07T02:32:20.080Z,42.20
2023-03-07T02:34:46.897Z,43.10
2023-03-07T02:37:24.338Z,42.50
2023-03-07T02:39:51.441Z,42.40
2023-03-07T02:42:22.542Z,42.20
2023-03-07T02:44:57.973Z,42.10
2023-03-07T02:49:53.420Z,42.00
2023-03-07T02:52:21.806Z,42.00
2023-03-07T02:54:48.845Z,41.70
2023-03-07T02:57:16.102Z,41.60
2023-03-07T02:59:42.965Z,41.90
2023-03-07T03:02:09.707Z,42.10
2023-03-07T03:04:36.471Z,41.70
2023-03-07T03:07:03.447Z,41.70
2023-03-07T03:09:30.255Z,41.50
2023-03-07T03:11:57.116Z,41.20
2023-03-07T03:14:23.920Z,41.30
2023-03-07T03:16:52.834Z,41.30
2023-03-07T03:19:19.671Z,41.30
2023-03-07T03:21:46.474Z,41.40
2023-03-07T03:24:13.212Z,41.20
2023-03-07T03:26:39.965Z,41.20
2023-03-07T03:29:07.500Z,41.30
2023-03-07T03:31:35.110Z,41.20
2023-03-07T03:34:02.390Z,41.00
2023-03-07T03:36:29.261Z,41.10
2023-03-07T03:38:57.452Z,41.20
2023-03-07T03:41:25.014Z,41.20
2023-03-07T03:43:52.387Z,41.00
2023-03-07T03:46:20.434Z,41.20
2023-03-07T03:48:54.517Z,41.30
2023-03-07T03:51:22.414Z,41.50
2023-03-07T03:53:49.774Z,41.60
2023-03-07T03:56:21.911Z,41.70
2023-03-07T03:58:51.571Z,41.90
2023-03-07T04:01:19.508Z,41.70
2023-03-07T04:03:48.913Z,41.80
2023-03-07T04:06:20.040Z,41.60
2023-03-07T04:08:47.496Z,41.50
2023-03-07T04:11:14.699Z,41.40
2023-03-07T04:13:41.890Z,41.70
2023-03-07T04:16:08.816Z,41.80
2023-03-07T04:18:36.334Z,41.80
2023-03-07T04:21:03.660Z,41.70
2023-03-07T04:23:30.419Z,41.70
2023-03-07T04:25:59.423Z,41.30
2023-03-07T04:28:28.991Z,41.20
2023-03-07T04:30:56.461Z,41.30
2023-03-07T04:33:24.211Z,41.30
2023-03-07T04:35:51.013Z,41.00
2023-03-07T04:38:18.151Z,41.10
2023-03-07T04:40:44.965Z,41.10
2023-03-07T04:43:11.744Z,40.90
2023-03-07T04:45:38.556Z,40.70
2023-03-07T04:48:05.707Z,40.60
2023-03-07T04:50:32.585Z,40.60
2023-03-07T04:52:59.287Z,40.40
2023-03-07T04:55:26.168Z,40.60
2023-03-07T04:57:52.980Z,40.60
2023-03-07T05:00:20.355Z,40.60
2023-03-07T05:02:48.567Z,40.60
2023-03-07T05:05:16.242Z,40.60
2023-03-07T05:07:43.858Z,40.60
2023-03-07T05:10:11.357Z,40.50
2023-03-07T05:12:38.264Z,40.60
2023-03-07T05:15:05.879Z,40.50
2023-03-07T05:17:32.653Z,40.60
2023-03-07T05:19:59.385Z,40.60
2023-03-07T05:22:26.095Z,40.70
2023-03-07T05:24:52.868Z,40.40
2023-03-07T05:27:19.612Z,41.10
2023-03-07T05:29:46.474Z,40.30
2023-03-07T05:32:13.543Z,40.00
2023-03-07T05:34:40.403Z,40.00
2023-03-07T05:37:07.111Z,39.80
2023-03-07T05:39:33.907Z,39.70
2023-03-07T05:42:00.697Z,39.40
2023-03-07T05:44:27.416Z,39.60
2023-03-07T05:46:54.131Z,39.50
2023-03-07T05:49:21.025Z,39.00
2023-03-07T05:51:47.808Z,38.80
2023-03-07T05:54:14.525Z,38.80
2023-03-07T05:56:41.288Z,38.90
2023-03-07T05:59:09.569Z,38.80
2023-03-07T06:01:36.357Z,38.70
2023-03-07T06:04:03.190Z,38.80
2023-03-07T06:06:29.980Z,38.70
2023-03-07T06:08:57.702Z,38.70
2023-03-07T06:11:24.434Z,38.70
2023-03-07T06:13:51.239Z,38.70
2023-03-07T06:16:18.168Z,38.60
2023-03-07T06:18:44.841Z,38.50
2023-03-07T06:21:15.146Z,38.60
2023-03-07T06:23:42.463Z,38.60
2023-03-07T06:26:10.403Z,38.70
2023-03-07T06:28:37.152Z,38.40
2023-03-07T06:31:15.766Z,38.20
2023-03-07T06:33:43.466Z,37.70
2023-03-07T06:36:12.728Z,37.40
2023-03-07T06:38:40.808Z,37.50
2023-03-07T06:41:08.521Z,36.90
2023-03-07T06:43:35.270Z,37.50
2023-03-07T06:46:02.917Z,36.80
2023-03-07T06:48:29.846Z,36.70
2023-03-07T06:50:56.839Z,36.70
2023-03-07T06:53:23.601Z,37.20
2023-03-07T06:55:51.506Z,36.30
2023-03-07T06:58:19.115Z,36.10
2023-03-07T07:00:45.950Z,35.90
2023-03-07T07:03:14.535Z,35.80
2023-03-07T07:05:41.592Z,35.80
2023-03-07T07:08:08.352Z,35.60
2023-03-07T07:10:35.145Z,35.10
2023-03-07T07:13:01.864Z,35.10
2023-03-07T07:15:28.692Z,35.70
2023-03-07T07:17:55.425Z,35.30
2023-03-07T07:20:22.359Z,35.20
2023-03-07T07:22:49.333Z,35.30
2023-03-07T07:25:16.222Z,35.90
2023-03-07T07:27:42.936Z,35.70
2023-03-07T07:30:10.446Z,35.00
2023-03-07T07:32:37.619Z,34.60
2023-03-07T07:35:04.918Z,34.20
2023-03-07T07:37:31.650Z,34.10
2023-03-07T07:39:58.909Z,33.90
2023-03-07T07:42:25.596Z,34.20
2023-03-07T07:44:52.331Z,33.00
2023-03-07T07:47:19.178Z,32.50
2023-03-07T07:49:45.976Z,32.10
2023-03-07T07:52:12.718Z,31.70
2023-03-07T07:54:39.463Z,31.20
2023-03-07T07:57:06.206Z,30.60
2023-03-07T07:59:34.306Z,30.00
2023-03-07T08:02:01.713Z,29.70
2023-03-07T08:04:28.523Z,29.30
2023-03-07T08:06:55.517Z,28.60
2023-03-07T08:09:22.230Z,29.20
2023-03-07T08:11:48.945Z,28.10
2023-03-07T08:14:15.851Z,28.30
2023-03-07T08:16:42.603Z,28.00
2023-03-07T08:19:09.288Z,27.90
2023-03-07T08:21:35.999Z,27.40
2023-03-07T08:24:04.099Z,26.90
2023-03-07T08:26:31.684Z,27.20
2023-03-07T08:28:59.062Z,27.40
2023-03-07T08:31:25.837Z,26.40
2023-03-07T08:33:53.471Z,26.70
2023-03-07T08:36:20.739Z,26.90
2023-03-07T08:38:51.932Z,26.70
2023-03-07T08:41:20.909Z,25.90
2023-03-07T08:43:47.843Z,25.50
2023-03-07T08:46:16.567Z,24.30
2023-03-07T08:48:45.136Z,23.70
2023-03-07T08:51:15.774Z,23.80
2023-03-07T08:53:43.512Z,23.60
2023-03-07T08:56:12.335Z,24.10
2023-03-07T08:58:39.542Z,23.60
2023-03-07T09:01:08.212Z,23.40
2023-03-07T09:03:35.421Z,23.10
2023-03-07T09:06:03.447Z,23.20
2023-03-07T09:08:30.518Z,23.00
2023-03-07T09:11:00.959Z,23.20
2023-03-07T09:13:27.939Z,23.20
2023-03-07T09:15:54.769Z,23.90
2023-03-07T09:18:22.994Z,22.80
2023-03-07T09:20:49.881Z,22.80
2023-03-07T09:23:16.719Z,22.90
2023-03-07T09:25:44.459Z,22.90
2023-03-07T09:28:11.431Z,23.20
2023-03-07T09:30:38.318Z,23.20
2023-03-07T09:33:05.316Z,23.10
2023-03-07T09:35:32.368Z,23.20
2023-03-07T09:37:59.234Z,23.30
2023-03-07T09:40:27.927Z,23.50
2023-03-07T09:42:55.839Z,23.60
2023-03-07T09:46:04.293Z,23.20
2023-03-07T09:48:53.156Z,23.50
2023-03-07T09:51:38.128Z,23.60
2023-03-07T09:54:23.605Z,23.60
2023-03-07T09:56:59.064Z,23.50
2023-03-07T09:59:39.614Z,22.90
2023-03-07T10:02:23.392Z,23.20
2023-03-07T10:05:04.429Z,22.90
2023-03-07T10:07:31.408Z,21.90
2023-03-07T10:10:02.355Z,21.50
2023-03-07T10:12:46.802Z,21.50
2023-03-07T10:15:28.137Z,20.60
2023-03-07T10:18:33.025Z,20.30
2023-03-07T10:21:20.126Z,20.20
2023-03-07T10:23:59.980Z,20.60
2023-03-07T10:26:33.979Z,21.10
2023-03-07T10:29:10.536Z,21.50
2023-03-07T10:31:41.415Z,21.50
2023-03-07T10:34:32.797Z,21.30
2023-03-07T10:37:17.814Z,21.80
2023-03-07T10:39:57.801Z,21.60
2023-03-07T10:42:27.721Z,21.80
2023-03-07T10:44:54.559Z,21.40
2023-03-07T10:47:26.041Z,22.20
2023-03-07T10:50:17.229Z,21.40
2023-03-07T10:52:53.558Z,21.50
2023-03-07T10:55:52.792Z,21.70
2023-03-07T10:58:29.091Z,21.70
2023-03-07T11:01:08.224Z,21.70
2023-03-07T11:03:59.473Z,21.70
2023-03-07T11:06:44.632Z,21.80
2023-03-07T11:09:30.731Z,21.90
2023-03-07T11:12:12.539Z,22.00
2023-03-07T11:14:55.834Z,22.30
2023-03-07T11:17:40.742Z,21.90
2023-03-07T11:20:24.001Z,22.50
2023-03-07T11:23:11.525Z,22.50
2023-03-07T11:25:38.434Z,22.60
2023-03-07T11:28:30.747Z,22.90
2023-03-07T11:31:42.085Z,23.20
2023-03-07T11:34:25.522Z,23.30
2023-03-07T11:36:59.181Z,23.80
2023-03-07T11:39:38.743Z,23.60
2023-03-07T11:42:22.520Z,23.90
2023-03-07T11:45:08.293Z,23.90
2023-03-07T11:47:42.547Z,23.40
2023-03-07T11:50:23.680Z,23.00
2023-03-07T11:53:12.235Z,22.50
2023-03-07T11:56:09.684Z,22.70
2023-03-07T11:58:45.793Z,22.50
2023-03-07T12:01:40.418Z,22.80
2023-03-07T12:04:36.688Z,22.70
2023-03-07T12:07:34.698Z,22.50
2023-03-07T12:10:15.329Z,22.70
2023-03-07T12:13:06.491Z,23.00
2023-03-07T12:15:46.099Z,22.90
2023-03-07T12:18:41.483Z,22.80
2023-03-07T12:21:17.257Z,22.60
2023-03-07T12:23:56.586Z,22.70
2023-03-07T12:26:28.437Z,22.80
2023-03-07T12:29:10.030Z,23.60
2023-03-07T12:31:47.669Z,22.90
2023-03-07T12:35:07.223Z,22.40
2023-03-07T12:37:47.564Z,22.90
2023-03-07T12:40:17.336Z,22.70
2023-03-07T12:42:58.922Z,22.50
2023-03-07T12:45:38.312Z,22.30
2023-03-07T12:48:11.481Z,22.10
2023-03-07T12:50:41.470Z,22.00
2023-03-07T12:53:24.567Z,22.30
2023-03-07T12:56:15.347Z,22.70
2023-03-07T12:58:48.345Z,22.60
2023-03-07T13:01:35.008Z,22.90
2023-03-07T13:04:25.115Z,22.70
2023-03-07T13:06:55.461Z,22.40
2023-03-07T13:09:24.868Z,22.70
2023-03-07T13:12:29.842Z,22.90
2023-03-07T13:15:00.527Z,22.90
2023-03-07T13:17:30.282Z,22.80
2023-03-07T13:19:59.027Z,22.60
2023-03-07T13:22:25.869Z,22.40
2023-03-07T13:25:15.016Z,21.80
2023-03-07T13:27:41.872Z,21.70
2023-03-07T13:30:11.838Z,21.70
2023-03-07T13:32:56.413Z,21.50
2023-03-07T13:35:46.375Z,21.60
2023-03-07T13:38:41.121Z,21.70
2023-03-07T13:41:12.965Z,21.50
2023-03-07T13:43:45.979Z,21.20
2023-03-07T13:46:24.637Z,21.70
2023-03-07T13:48:54.532Z,21.70
2023-03-07T13:51:21.901Z,21.60
2023-03-07T13:53:53.112Z,21.30
2023-03-07T13:56:29.464Z,21.40
2023-03-07T13:59:14.303Z,21.50
2023-03-07T14:02:04.583Z,21.40
2023-03-07T14:04:45.031Z,21.30
2023-03-07T14:07:17.554Z,21.10
2023-03-07T14:10:07.517Z,21.10
2023-03-07T14:13:05.572Z,21.30
2023-03-07T14:15:47.900Z,20.90
2023-03-07T14:18:38.209Z,21.20
2023-03-07T14:21:12.530Z,21.40
2023-03-07T14:24:03.597Z,21.70
2023-03-07T14:26:36.956Z,21.80
2023-03-07T14:29:22.205Z,21.90
2023-03-07T14:31:54.894Z,21.90
2023-03-07T14:34:21.797Z,21.40
2023-03-07T14:37:04.479Z,21.10
2023-03-07T14:39:59.058Z,21.20
2023-03-07T14:42:28.922Z,21.40
2023-03-07T14:45:12.900Z,21.10
2023-03-07T14:47:39.702Z,21.40
2023-03-07T14:50:16.462Z,21.60
2023-03-07T14:52:44.062Z,21.50
2023-03-07T14:55:20.589Z,21.40
2023-03-07T14:57:52.926Z,21.10
2023-03-07T15:00:29.645Z,21.20
2023-03-07T15:03:04.595Z,21.50
2023-03-07T15:05:34.945Z,22.10
2023-03-07T15:08:02.000Z,21.50
2023-03-07T15:10:32.317Z,21.80
2023-03-07T15:12:59.484Z,22.00
2023-03-07T15:15:49.074Z,22.00
2023-03-07T15:18:24.563Z,22.10
2023-03-07T15:20:54.748Z,22.00
2023-03-07T15:23:24.249Z,22.20
2023-03-07T15:26:05.260Z,22.10
2023-03-07T15:28:35.256Z,22.40
2023-03-07T15:31:02.672Z,22.30
2023-03-07T15:33:33.573Z,22.20
2023-03-07T15:36:12.680Z,22.30
2023-03-07T15:38:45.587Z,22.20
2023-03-07T15:41:25.897Z,22.90
2023-03-07T15:44:10.779Z,22.60
2023-03-07T15:46:44.982Z,22.60
2023-03-07T15:49:25.882Z,22.70
2023-03-07T15:51:55.891Z,22.90
2023-03-07T15:54:39.381Z,22.80
2023-03-07T15:57:16.045Z,23.00
2023-03-07T15:59:53.824Z,23.50
2023-03-07T16:02:32.738Z,23.20
2023-03-07T16:05:01.300Z,23.40
2023-03-07T16:07:28.520Z,23.50
2023-03-07T16:09:55.378Z,23.50
2023-03-07T16:12:24.145Z,23.40
2023-03-07T16:14:53.585Z,24.20
2023-03-07T16:17:22.464Z,23.60
2023-03-07T16:19:49.468Z,23.70
2023-03-07T16:22:18.483Z,23.90
2023-03-07T16:24:45.238Z,23.90
2023-03-07T16:27:20.657Z,23.90
2023-03-07T16:29:48.219Z,24.00
2023-03-07T16:32:20.637Z,24.00
2023-03-07T16:34:48.882Z,24.00
2023-03-07T16:37:15.684Z,24.00
2023-03-07T16:39:42.611Z,23.90
2023-03-07T16:42:35.947Z,23.70
2023-03-07T16:45:07.560Z,23.70
2023-03-07T16:47:34.274Z,23.70
2023-03-07T16:50:01.269Z,23.70
2023-03-07T16:52:28.087Z,24.00
2023-03-07T16:54:54.841Z,24.00
2023-03-07T16:57:22.777Z,24.00
2023-03-07T16:59:49.576Z,24.00
2023-03-07T17:02:18.974Z,24.10
2023-03-07T17:04:45.924Z,23.90
2023-03-07T17:07:22.075Z,24.00
2023-03-07T17:09:49.659Z,24.10
2023-03-07T17:12:20.603Z,24.20
2023-03-07T17:14:47.448Z,24.30
2023-03-07T17:17:25.488Z,24.00
2023-03-07T17:19:52.212Z,24.10
2023-03-07T17:22:21.939Z,24.20
2023-03-07T17:24:48.778Z,24.30
2023-03-07T17:27:16.568Z,24.30
2023-03-07T17:29:50.930Z,24.80
2023-03-07T17:32:18.178Z,24.30
2023-03-07T17:34:44.983Z,24.70
2023-03-07T17:37:12.396Z,24.50
2023-03-07T17:39:39.576Z,24.30
2023-03-07T17:42:07.412Z,24.40
2023-03-07T17:44:34.998Z,24.60
2023-03-07T17:47:01.825Z,24.50
2023-03-07T17:49:37.052Z,24.40
2023-03-07T17:52:05.512Z,24.50
2023-03-07T17:54:33.389Z,24.50
2023-03-07T17:57:00.943Z,24.50
2023-03-07T17:59:27.738Z,24.70
2023-03-07T18:01:54.988Z,24.90
2023-03-07T18:04:21.808Z,24.80
2023-03-07T18:06:48.666Z,24.70
2023-03-07T18:09:16.671Z,24.70
2023-03-07T18:11:43.482Z,24.70
2023-03-07T18:14:11.289Z,24.80
2023-03-07T18:16:38.060Z,25.00
2023-03-07T18:19:06.792Z,24.90
2023-03-07T18:21:33.859Z,25.30
2023-03-07T18:24:00.719Z,25.50
2023-03-07T18:26:27.818Z,25.50
2023-03-07T18:28:55.877Z,25.50
2023-03-07T18:31:28.684Z,25.70
2023-03-07T18:33:56.256Z,25.90
2023-03-07T18:36:25.287Z,26.00
2023-03-07T18:38:52.747Z,26.20
2023-03-07T18:41:24.703Z,26.30
2023-03-07T18:43:53.494Z,26.70
2023-03-07T18:46:22.262Z,26.60
2023-03-07T18:48:49.625Z,26.80
2023-03-07T18:51:24.914Z,27.00
2023-03-07T18:53:56.944Z,27.00
2023-03-07T18:56:24.293Z,27.20
2023-03-07T18:58:56.666Z,27.30
2023-03-07T19:01:26.316Z,27.50
2023-03-07T19:03:55.085Z,27.70
2023-03-07T19:06:23.896Z,28.00
2023-03-07T19:08:51.349Z,28.80
2023-03-07T19:11:19.430Z,29.10
2023-03-07T19:13:46.524Z,29.30
2023-03-07T19:16:17.161Z,29.50
2023-03-07T19:18:44.887Z,29.50
2023-03-07T19:21:16.835Z,29.40
2023-03-07T19:23:43.642Z,29.20
2023-03-07T19:26:12.890Z,28.80
2023-03-07T19:28:40.547Z,28.50
2023-03-07T19:31:09.333Z,28.10
2023-03-07T19:33:37.728Z,28.10
2023-03-07T19:36:10.375Z,27.90
2023-03-07T19:38:37.875Z,27.70
2023-03-07T19:41:08.198Z,27.60
2023-03-07T19:43:35.022Z,27.40
2023-03-07T19:46:06.481Z,27.30
2023-03-07T19:48:33.940Z,27.30
2023-03-07T19:51:01.081Z,27.30
2023-03-07T19:53:28.181Z,27.40
2023-03-07T19:55:55.247Z,27.10
2023-03-07T19:58:22.148Z,27.20
2023-03-07T20:00:48.881Z,27.40
2023-03-07T20:03:20.566Z,27.40
2023-03-07T20:05:48.944Z,27.40
2023-03-07T20:08:19.291Z,27.30
2023-03-07T20:10:46.099Z,27.40
2023-03-07T20:13:14.072Z,27.30
2023-03-07T20:15:42.721Z,27.40
2023-03-07T20:18:11.193Z,27.10
2023-03-07T20:20:38.042Z,27.10
2023-03-07T20:23:04.948Z,27.20
2023-03-07T20:25:31.764Z,26.90
2023-03-07T20:27:58.594Z,27.00
2023-03-07T20:30:25.638Z,27.00
2023-03-07T20:32:52.598Z,26.70
2023-03-07T20:35:20.052Z,26.60
2023-03-07T20:37:46.878Z,27.00
2023-03-07T20:40:14.245Z,26.50
2023-03-07T20:42:40.983Z,26.50
2023-03-07T20:45:08.204Z,26.50
2023-03-07T20:47:38.157Z,26.50
2023-03-07T20:50:06.056Z,26.50
2023-03-07T20:52:32.861Z,26.50
2023-03-07T20:54:59.938Z,26.50
2023-03-07T20:57:26.940Z,26.40
2023-03-07T20:59:53.823Z,26.40
2023-03-07T21:02:20.559Z,26.40
2023-03-07T21:04:49.807Z,26.20
2023-03-07T21:07:16.755Z,26.20
2023-03-07T21:09:50.697Z,26.20
2023-03-07T21:12:18.055Z,26.20
2023-03-07T21:14:44.903Z,25.90
2023-03-07T21:17:14.719Z,25.90
2023-03-07T21:19:41.598Z,25.70
2023-03-07T21:22:08.529Z,25.90
2023-03-07T21:24:35.399Z,25.70
2023-03-07T21:27:02.211Z,25.80
2023-03-07T21:29:29.018Z,26.40
2023-03-07T21:31:55.958Z,26.40
2023-03-07T21:34:22.711Z,26.10
2023-03-07T21:36:55.871Z,26.00
2023-03-07T21:39:25.866Z,26.10
2023-03-07T21:41:52.645Z,26.10
2023-03-07T21:44:19.466Z,26.10
2023-03-07T21:46:46.196Z,26.30
2023-03-07T21:49:13.146Z,26.50
2023-03-07T21:51:39.940Z,26.50
2023-03-07T21:54:06.649Z,26.60
2023-03-07T21:56:33.371Z,26.80
2023-03-07T21:59:00.116Z,27.20
2023-03-07T22:01:28.951Z,26.90
2023-03-07T22:03:57.640Z,26.60
2023-03-07T22:06:25.230Z,26.60
2023-03-07T22:08:52.029Z,26.60
2023-03-07T22:11:18.932Z,26.60
2023-03-07T22:13:45.744Z,26.70
2023-03-07T22:16:15.539Z,26.80
2023-03-07T22:18:42.326Z,26.70
2023-03-07T22:21:17.095Z,26.80
2023-03-07T22:23:44.170Z,26.80
2023-03-07T22:26:11.984Z,26.60
2023-03-07T22:28:40.631Z,26.70
2023-03-07T22:31:12.388Z,26.70
2023-03-07T22:33:40.479Z,26.90
2023-03-07T22:36:10.421Z,26.90
2023-03-07T22:38:37.136Z,27.00
2023-03-07T22:41:06.814Z,27.10
2023-03-07T22:43:35.655Z,27.30
2023-03-07T22:46:03.014Z,27.40
2023-03-07T22:48:30.116Z,27.40
2023-03-07T22:50:57.179Z,27.50
2023-03-07T22:53:26.938Z,27.50
2023-03-07T22:55:54.147Z,27.50
2023-03-07T22:58:20.965Z,27.50
2023-03-07T23:00:47.757Z,27.60
2023-03-07T23:03:14.531Z,27.80
2023-03-07T23:05:41.389Z,27.80
2023-03-07T23:08:08.146Z,27.90
2023-03-07T23:10:35.039Z,27.80
2023-03-07T23:13:01.888Z,28.00
2023-03-07T23:15:28.933Z,28.00
2023-03-07T23:17:55.922Z,28.10
2023-03-07T23:20:25.785Z,28.30
2023-03-07T23:22:53.414Z,28.20
2023-03-07T23:25:21.027Z,28.30
2023-03-07T23:27:48.119Z,28.30
2023-03-07T23:30:17.334Z,28.30
2023-03-07T23:32:44.168Z,28.30
2023-03-07T23:35:11.530Z,28.40
2023-03-07T23:37:38.347Z,28.30
2023-03-07T23:40:05.560Z,28.30
2023-03-07T23:42:32.416Z,28.40
2023-03-07T23:44:59.208Z,28.30
2023-03-07T23:47:25.940Z,28.30
2023-03-07T23:49:52.728Z,28.40
2023-03-07T23:52:19.498Z,28.30
2023-03-07T23:54:46.514Z,28.30
2023-03-07T23:57:13.330Z,28.40
2023-03-07T23:59:40.032Z,28.40
